EGEC/CAL METAR and TAF weather

Enter ICAO airport designator
Station Type Date Time Source
EGEC METAR 2018/01/16 09:20 UTC NOAA

EGEC 160920Z 29024G35KT 9999 FEW020 03/01 Q0984


Station Type Date Time Source
EGEC Decoded METAR 2018/01/16 09:20 UTC NOAA

Campbeltown, United Kingdom (EGEC) 55-26-14N 005-41-11W
Jan 16, 2018 - 04:20 AM EST / 2018.01.16 0920 UTC
Wind: from the WNW (290 degrees) at 28 MPH (24 KT) gusting to 40 MPH (35 KT):0
Visibility: greater than 7 mile(s):0
Sky conditions: mostly clear
Temperature: 37 F (3 C)
Dew Point: 33 F (1 C)
Relative Humidity: 86%
Pressure (altimeter): 29.06 in. Hg (0984 hPa)
ob: EGEC 160920Z 29024G35KT 9999 FEW020 03/01 Q0984
cycle: 9

Station Type Date Time Source
EGEC TAF UTC NOAA

Error!


Example: see airport list